Time;durP1;ratioP1;P1;durP2;ratioP2;P2;SDS_P1;SDS_P2;PMS_P1;PMS_P2;Temp;Humidity;BMP_temperature;BMP_pressure;BME280_temperature;BME280_humidity;BME280_pressure;Samples;Min_cycle;Max_cycle;Signal;HPM_P1;HPM_P2
2021/08/31 00:01:50;;;;;;;1.7;1.3;;;;;;;13.72;95.77539;939.719;;;;
2021/08/31 00:04:15;;;;;;;1.9;1.5;;;;;;;13.66;96.02734;939.7726;;;;
2021/08/31 00:06:40;;;;;;;2.1;1.4;;;;;;;13.64;95.73438;939.787;;;;
2021/08/31 00:09:05;;;;;;;2.1;1.5;;;;;;;13.68;95.56934;939.8078;;;;
2021/08/31 00:11:52;;;;;;;1.8;1.4;;;;;;;13.65;95.72656;939.7798;;;;
2021/08/31 00:14:18;;;;;;;2.2;1.5;;;;;;;13.7;95.32031;939.7814;;;;
2021/08/31 00:16:43;;;;;;;0.9;0.8;;;;;;;13.78;94.9834;939.8022;;;;
2021/08/31 00:19:10;;;;;;;2.3;1.4;;;;;;;13.71;95.54297;939.7918;;;;
2021/08/31 00:22:24;;;;;;;2.8;1.7;;;;;;;13.77;95.04883;939.7814;;;;
2021/08/31 00:24:50;;;;;;;1.2;1;;;;;;;13.68;95.87988;939.799;;;;
2021/08/31 00:27:15;;;;;;;1.3;1.2;;;;;;;13.71;95.96875;939.7999;;;;
2021/08/31 00:29:40;;;;;;;0.7;0.7;;;;;;;13.75;94.88379;939.7838;;;;
2021/08/31 00:32:06;;;;;;;0.8;0.8;;;;;;;13.66;94.84277;939.8486;;;;
2021/08/31 00:34:31;;;;;;;1.2;1.1;;;;;;;13.56;95.95996;939.8515;;;;
2021/08/31 00:36:57;;;;;;;3.1;1.4;;;;;;;13.54;96;939.8642;;;;
2021/08/31 00:39:23;;;;;;;1.7;1.1;;;;;;;13.55;95.85254;939.8067;;;;
2021/08/31 00:41:48;;;;;;;1;1;;;;;;;13.52;96.1084;939.8362;;;;
2021/08/31 00:44:13;;;;;;;1.1;0.9;;;;;;;13.55;96.08398;939.8603;;;;
2021/08/31 00:46:38;;;;;;;1;1;;;;;;;13.57;95.83301;939.8739;;;;
2021/08/31 00:49:05;;;;;;;1.2;1.1;;;;;;;13.55;95.99023;939.8667;;;;
2021/08/31 00:51:34;;;;;;;1.6;0.9;;;;;;;13.7;95.51563;939.955;;;;
2021/08/31 00:53:59;;;;;;;1.2;0.9;;;;;;;13.66;95.64844;939.9678;;;;
2021/08/31 00:56:25;;;;;;;1;0.9;;;;;;;13.61;96.37207;939.9716;;;;
2021/08/31 00:58:50;;;;;;;1.5;0.9;;;;;;;13.63;96.4082;939.9678;;;;
2021/08/31 01:01:15;;;;;;;2.2;1.4;;;;;;;13.65;95.97754;940.0047;;;;
2021/08/31 01:03:40;;;;;;;1.9;1.4;;;;;;;13.6;95.71484;939.9707;;;;
2021/08/31 01:06:06;;;;;;;1.8;1.3;;;;;;;13.6;95.58789;939.9931;;;;
2021/08/31 01:08:31;;;;;;;2.4;1.7;;;;;;;13.63;95.15918;940.0375;;;;
2021/08/31 01:10:56;;;;;;;1.3;1.2;;;;;;;13.61;94.91211;939.9619;;;;
2021/08/31 01:13:21;;;;;;;1.1;0.9;;;;;;;13.6;95.19727;939.9563;;;;
2021/08/31 01:15:46;;;;;;;1;0.9;;;;;;;13.63;95.35059;939.9655;;;;
2021/08/31 01:18:11;;;;;;;1.4;0.8;;;;;;;13.61;95.60156;939.9363;;;;
2021/08/31 01:20:37;;;;;;;1.1;0.9;;;;;;;13.52;96.00684;939.9691;;;;
2021/08/31 01:23:02;;;;;;;1.1;1;;;;;;;13.47;96.375;939.9778;;;;
2021/08/31 01:25:27;;;;;;;2.2;0.9;;;;;;;13.47;96.52441;939.9883;;;;
2021/08/31 01:27:52;;;;;;;1.3;1.2;;;;;;;13.59;96.34277;939.9275;;;;
2021/08/31 01:30:17;;;;;;;1.3;1.2;;;;;;;13.61;96.32617;939.9819;;;;
2021/08/31 01:32:42;;;;;;;1.6;1.1;;;;;;;13.62;96.23633;939.9966;;;;
2021/08/31 01:35:08;;;;;;;0.8;0.8;;;;;;;13.66;96.05078;940.0103;;;;
2021/08/31 01:37:33;;;;;;;1.1;0.9;;;;;;;13.69;95.53906;939.9886;;;;
2021/08/31 01:39:58;;;;;;;0.8;0.8;;;;;;;13.64;95.27441;939.9871;;;;
2021/08/31 01:42:23;;;;;;;1.8;1;;;;;;;13.53;95.60645;940.0259;;;;
2021/08/31 01:45:05;;;;;;;1.1;1;;;;;;;13.48;96.28418;940.0219;;;;
2021/08/31 01:47:30;;;;;;;0.9;0.9;;;;;;;13.47;96.68457;939.9706;;;;
2021/08/31 01:49:56;;;;;;;2.5;1.2;;;;;;;13.5;96.42871;939.9979;;;;
2021/08/31 01:52:21;;;;;;;2.4;1.6;;;;;;;13.48;96.1582;940.0466;;;;
2021/08/31 01:54:46;;;;;;;3.3;1.5;;;;;;;13.51;95.83301;940.0106;;;;
2021/08/31 01:57:12;;;;;;;1.5;1.3;;;;;;;13.55;95.8291;939.9691;;;;
2021/08/31 01:59:37;;;;;;;2.2;1.3;;;;;;;13.54;95.97656;940.0034;;;;
2021/08/31 02:02:02;;;;;;;2;1.4;;;;;;;13.52;95.62598;940.0667;;;;
2021/08/31 02:04:27;;;;;;;1.6;1.3;;;;;;;13.53;95.75586;940.0067;;;;
2021/08/31 02:06:52;;;;;;;1.1;1;;;;;;;13.55;95.77148;940.0098;;;;
2021/08/31 02:09:17;;;;;;;1.3;1;;;;;;;13.56;95.87891;939.9411;;;;
2021/08/31 02:11:42;;;;;;;2.6;1.4;;;;;;;13.53;96.1582;940.0411;;;;
2021/08/31 02:14:07;;;;;;;2.3;1.4;;;;;;;13.56;96.25879;939.9939;;;;
2021/08/31 02:16:33;;;;;;;1.3;1;;;;;;;13.47;96.26953;939.9778;;;;
2021/08/31 02:19:10;;;;;;;1.8;1;;;;;;;13.39;96.70117;940.0198;;;;
2021/08/31 02:21:36;;;;;;;1.1;1;;;;;;;13.41;96.87988;939.9598;;;;
2021/08/31 02:24:01;;;;;;;1.1;1;;;;;;;13.52;96.6377;940.0291;;;;
2021/08/31 02:26:30;;;;;;;1.3;1.1;;;;;;;13.47;96.85938;940.0298;;;;
2021/08/31 02:28:51;;;;;;;1.4;1.3;;;;;;;13.48;96.27344;940.0195;;;;
2021/08/31 02:31:17;;;;;;;1.3;1.2;;;;;;;13.42;95.92773;940.1002;;;;
2021/08/31 02:33:42;;;;;;;1.8;1.3;;;;;;;13.41;96.61523;940.0623;;;;
2021/08/31 02:36:07;;;;;;;1.8;1.1;;;;;;;13.44;96.5293;940.1298;;;;
2021/08/31 02:38:33;;;;;;;1.1;1;;;;;;;13.39;96.5293;940.1286;;;;
2021/08/31 02:40:59;;;;;;;1.7;1;;;;;;;13.43;96.10059;940.149;;;;
2021/08/31 02:43:24;;;;;;;1.4;1.1;;;;;;;13.42;95.93945;940.1186;;;;
2021/08/31 02:45:49;;;;;;;1.5;1;;;;;;;13.5;95.9209;940.1442;;;;
2021/08/31 02:48:14;;;;;;;1.2;1;;;;;;;13.41;96.75293;940.1063;;;;
2021/08/31 02:50:39;;;;;;;1.4;0.9;;;;;;;13.44;96.90918;940.1898;;;;
2021/08/31 02:53:04;;;;;;;1.9;1;;;;;;;13.43;96.63086;940.2081;;;;
2021/08/31 02:55:29;;;;;;;1.4;1.2;;;;;;;13.56;96.09766;940.1875;;;;
2021/08/31 02:57:55;;;;;;;1.4;1.3;;;;;;;13.62;95.79688;940.1655;;;;
2021/08/31 03:00:20;;;;;;;1.9;1.2;;;;;;;13.51;96.58008;940.2251;;;;
2021/08/31 03:02:45;;;;;;;1.9;1.4;;;;;;;13.54;96.34473;940.2107;;;;
2021/08/31 03:05:11;;;;;;;1.9;1.7;;;;;;;13.55;96.23145;940.2003;;;;
2021/08/31 03:07:36;;;;;;;1.6;1.5;;;;;;;13.59;95.75684;940.1859;;;;
2021/08/31 03:10:03;;;;;;;1.8;1.4;;;;;;;13.49;96.09082;940.2019;;;;
2021/08/31 03:12:28;;;;;;;2;1.7;;;;;;;13.51;96.04883;940.1459;;;;
2021/08/31 03:14:54;;;;;;;1.6;1.5;;;;;;;13.57;95.67188;940.1219;;;;
2021/08/31 03:17:18;;;;;;;1.5;1.4;;;;;;;13.56;95.48828;940.1763;;;;
2021/08/31 03:19:43;;;;;;;1.5;1.4;;;;;;;13.54;95.67773;940.0818;;;;
2021/08/31 03:22:10;;;;;;;2;1.6;;;;;;;13.59;95.41211;940.1067;;;;
2021/08/31 03:24:34;;;;;;;1.6;1.5;;;;;;;13.58;95.76367;940.1355;;;;
2021/08/31 03:26:59;;;;;;;1.6;1.5;;;;;;;13.66;95.00195;940.1526;;;;
2021/08/31 03:29:24;;;;;;;1.6;1.5;;;;;;;13.6;95.63379;940.1523;;;;
2021/08/31 03:32:16;;;;;;;1.9;1.7;;;;;;;13.63;95.75488;940.2095;;;;
2021/08/31 03:34:43;;;;;;;2.1;1.8;;;;;;;13.6;95.98828;940.2804;;;;
2021/08/31 03:37:08;;;;;;;1.1;1.1;;;;;;;13.54;96.17188;940.3123;;;;
2021/08/31 03:39:36;;;;;;;2.2;1.3;;;;;;;13.65;95.49219;940.2991;;;;
2021/08/31 03:41:59;;;;;;;1.5;1.4;;;;;;;13.64;95.03223;940.3247;;;;
2021/08/31 03:44:24;;;;;;;1.6;1.5;;;;;;;13.58;95.43262;940.3292;;;;
2021/08/31 03:46:49;;;;;;;2.2;1.4;;;;;;;13.53;96.21582;940.3059;;;;
2021/08/31 03:49:14;;;;;;;2.8;1.5;;;;;;;13.48;96.00879;940.3578;;;;
2021/08/31 03:51:40;;;;;;;1.3;1.2;;;;;;;13.47;96.25781;940.3666;;;;
2021/08/31 03:54:05;;;;;;;1.5;1.3;;;;;;;13.45;96.60059;940.3218;;;;
2021/08/31 03:56:30;;;;;;;1.3;1.2;;;;;;;13.39;96.24121;940.3702;;;;
2021/08/31 03:58:55;;;;;;;2.6;1.7;;;;;;;13.38;96.40039;940.3622;;;;
2021/08/31 04:02:31;;;;;;;1.5;1.2;;;;;;;13.41;96.39746;940.395;;;;
2021/08/31 04:04:56;;;;;;;2.3;1.6;;;;;;;13.46;96.30371;940.4434;;;;
2021/08/31 04:07:21;;;;;;;2.1;1.2;;;;;;;13.45;96.23047;940.4226;;;;
2021/08/31 04:09:46;;;;;;;2.4;1.4;;;;;;;13.44;96.05859;940.4842;;;;
2021/08/31 04:12:11;;;;;;;2.6;1.5;;;;;;;13.45;95.69238;940.5306;;;;
2021/08/31 04:15:21;;;;;;;1.9;1.2;;;;;;;13.49;95.6543;940.5114;;;;
2021/08/31 04:17:46;;;;;;;2.7;1.3;;;;;;;13.43;95.55078;940.5242;;;;
2021/08/31 04:20:11;;;;;;;1.6;1.2;;;;;;;13.46;95.6709;940.4818;;;;
2021/08/31 04:22:37;;;;;;;2.2;1.4;;;;;;;13.46;95.56836;940.545;;;;
2021/08/31 04:25:03;;;;;;;2.8;1.6;;;;;;;13.47;95.01855;940.5586;;;;
2021/08/31 04:27:27;;;;;;;2;1.3;;;;;;;13.45;95.04883;940.5209;;;;
2021/08/31 04:29:52;;;;;;;1.7;1.4;;;;;;;13.42;95.65039;940.5385;;;;
2021/08/31 04:32:18;;;;;;;1.3;1.2;;;;;;;13.42;95.7666;940.5433;;;;
2021/08/31 04:34:43;;;;;;;1.3;1.1;;;;;;;13.4;96.14258;940.5942;;;;
2021/08/31 04:37:08;;;;;;;1.5;1.4;;;;;;;13.38;95.96582;940.6685;;;;
2021/08/31 04:39:33;;;;;;;1.8;1.3;;;;;;;13.4;96.00195;940.6398;;;;
2021/08/31 04:42:02;;;;;;;2;1.6;;;;;;;13.35;96.19922;940.7053;;;;
2021/08/31 04:44:24;;;;;;;2.2;1.4;;;;;;;13.39;96.20703;940.7053;;;;
2021/08/31 04:46:53;;;;;;;2.5;1.5;;;;;;;13.28;96.90918;940.7458;;;;
2021/08/31 04:49:18;;;;;;;2.8;1.4;;;;;;;13.27;97.44336;940.7363;;;;
2021/08/31 04:51:43;;;;;;;1.4;1.3;;;;;;;13.35;97.05859;940.6277;;;;
2021/08/31 04:54:08;;;;;;;1.5;1.3;;;;;;;13.44;96.4375;940.633;;;;
2021/08/31 04:56:33;;;;;;;2;1.5;;;;;;;13.39;96.49609;940.675;;;;
2021/08/31 04:58:59;;;;;;;1.7;1.4;;;;;;;13.39;96.74902;940.6477;;;;
2021/08/31 05:01:24;;;;;;;1.8;1.4;;;;;;;13.43;96.71094;940.7257;;;;
2021/08/31 05:03:49;;;;;;;1.8;1.6;;;;;;;13.46;96.5332;940.5954;;;;
2021/08/31 05:06:14;;;;;;;2.2;1.5;;;;;;;13.5;96.46094;940.6795;;;;
2021/08/31 05:08:39;;;;;;;2.2;1.6;;;;;;;13.52;96.21387;940.7011;;;;
2021/08/31 05:11:04;;;;;;;1.8;1.4;;;;;;;13.57;95.9707;940.7244;;;;
2021/08/31 05:13:30;;;;;;;3;1.7;;;;;;;13.58;96.10156;940.6908;;;;
2021/08/31 05:15:54;;;;;;;1.5;0.9;;;;;;;13.64;95.42383;940.6713;;;;
2021/08/31 05:18:20;;;;;;;1.5;1;;;;;;;13.62;95.0957;940.6392;;;;
2021/08/31 05:20:46;;;;;;;1.6;0.9;;;;;;;13.61;95.3252;940.6716;;;;
2021/08/31 05:23:11;;;;;;;1.4;1;;;;;;;13.66;95.07324;940.7048;;;;
2021/08/31 05:25:36;;;;;;;3.2;1.5;;;;;;;13.65;95.27441;940.6992;;;;
2021/08/31 05:28:01;;;;;;;2.1;1.1;;;;;;;13.62;95.35059;940.7151;;;;
2021/08/31 05:30:27;;;;;;;1.9;1.3;;;;;;;13.6;95.33301;940.8077;;;;
2021/08/31 05:32:52;;;;;;;1.6;1.3;;;;;;;13.59;95.60742;940.8541;;;;
2021/08/31 05:35:17;;;;;;;2;1.8;;;;;;;13.68;95.36426;940.8265;;;;
2021/08/31 05:37:42;;;;;;;3.8;2;;;;;;;13.64;95.99805;940.7913;;;;
2021/08/31 05:40:07;;;;;;;2.7;2;;;;;;;13.67;95.53516;940.7321;;;;
2021/08/31 05:42:33;;;;;;;2.4;2;;;;;;;13.7;95.51563;940.7817;;;;
2021/08/31 05:44:58;;;;;;;2.4;2.2;;;;;;;13.78;95.28027;940.7802;;;;
2021/08/31 05:47:23;;;;;;;2.4;1.9;;;;;;;13.84;94.86914;940.7622;;;;
2021/08/31 05:49:48;;;;;;;3;2;;;;;;;13.88;95.02832;940.771;;;;
2021/08/31 05:52:13;;;;;;;2.3;1.9;;;;;;;13.93;94.40332;940.8039;;;;
2021/08/31 05:54:39;;;;;;;3.2;1.6;;;;;;;13.93;94.49707;940.8183;;;;
2021/08/31 05:57:10;;;;;;;2.2;1.9;;;;;;;13.91;94.88477;940.7719;;;;
2021/08/31 05:59:29;;;;;;;1.2;1.1;;;;;;;13.86;95.11621;940.8527;;;;
2021/08/31 06:01:55;;;;;;;1.1;1;;;;;;;13.88;94.3125;940.8591;;;;
2021/08/31 06:04:22;;;;;;;1.4;1.1;;;;;;;13.87;94.0459;940.8727;;;;
2021/08/31 06:06:45;;;;;;;2.5;1.5;;;;;;;13.92;93.98926;940.8511;;;;
2021/08/31 06:09:10;;;;;;;1.4;1.1;;;;;;;13.91;94.35547;940.9439;;;;
2021/08/31 06:11:38;;;;;;;1.2;1.1;;;;;;;13.98;94.19629;940.9056;;;;
2021/08/31 06:14:49;;;;;;;1.6;1.2;;;;;;;13.95;94.13281;940.9359;;;;
2021/08/31 06:17:18;;;;;;;1;1;;;;;;;14.02;94.17188;940.949;;;;
2021/08/31 06:19:41;;;;;;;1.7;1.3;;;;;;;14;94.27148;941.0297;;;;
2021/08/31 06:22:39;;;;;;;1.3;1.2;;;;;;;13.97;93.89746;940.9841;;;;
2021/08/31 06:25:03;;;;;;;1.2;1.1;;;;;;;13.89;94.62793;941.0031;;;;
2021/08/31 06:27:29;;;;;;;0.8;0.8;;;;;;;13.94;94.47852;941.0361;;;;
2021/08/31 06:29:54;;;;;;;0.9;0.9;;;;;;;13.95;94.36523;940.9615;;;;
2021/08/31 06:32:19;;;;;;;0.9;0.8;;;;;;;13.91;94.66602;941.0441;;;;
2021/08/31 06:34:44;;;;;;;1.2;1.1;;;;;;;13.95;94.93848;941.0881;;;;
2021/08/31 06:37:09;;;;;;;1.1;1;;;;;;;13.97;95.07129;941.0801;;;;
2021/08/31 06:39:34;;;;;;;1.1;0.7;;;;;;;14.03;94.49414;941.1317;;;;
2021/08/31 06:42:00;;;;;;;1;0.9;;;;;;;14.07;94.34473;941.1277;;;;
2021/08/31 06:44:25;;;;;;;0.8;0.5;;;;;;;14.07;94.01074;941.1989;;;;
2021/08/31 06:46:50;;;;;;;1;0.7;;;;;;;14.11;93.33887;941.1598;;;;
2021/08/31 06:49:15;;;;;;;0.9;0.6;;;;;;;14.18;93.30664;941.2943;;;;
2021/08/31 06:51:40;;;;;;;2;0.6;;;;;;;14.22;93.56934;941.2906;;;;
2021/08/31 06:54:05;;;;;;;0.4;0.4;;;;;;;14.25;92.0918;941.3283;;;;
2021/08/31 06:56:31;;;;;;;0.4;0.4;;;;;;;14.21;91.77148;941.2983;;;;
2021/08/31 06:58:56;;;;;;;0.5;0.5;;;;;;;14.25;91.84961;941.3019;;;;
2021/08/31 07:01:22;;;;;;;1.2;0.8;;;;;;;14.28;92.32813;941.2986;;;;
2021/08/31 07:03:47;;;;;;;1.7;0.8;;;;;;;14.24;91.99609;941.3627;;;;
2021/08/31 07:06:12;;;;;;;0.7;0.6;;;;;;;14.3;91.59473;941.382;;;;
2021/08/31 07:08:38;;;;;;;1;0.7;;;;;;;14.34;92.02832;941.3675;;;;
2021/08/31 07:11:03;;;;;;;0.8;0.4;;;;;;;14.42;92.02441;941.3886;;;;
2021/08/31 07:13:28;;;;;;;1.4;0.9;;;;;;;14.5;91.48828;941.3817;;;;
2021/08/31 07:15:53;;;;;;;1.1;0.8;;;;;;;14.52;91.34082;941.3705;;;;
2021/08/31 07:18:19;;;;;;;0.6;0.6;;;;;;;14.52;91.1123;941.4066;;;;
2021/08/31 07:20:44;;;;;;;0.6;0.5;;;;;;;14.56;91.29199;941.3929;;;;
2021/08/31 07:23:09;;;;;;;2.3;1.5;;;;;;;14.48;91.43652;941.4426;;;;
2021/08/31 07:25:34;;;;;;;1.2;0.9;;;;;;;14.46;92.44531;941.4619;;;;
2021/08/31 07:27:59;;;;;;;1;0.6;;;;;;;14.51;92.21387;941.4939;;;;
2021/08/31 07:30:24;;;;;;;0.7;0.6;;;;;;;14.51;91.99512;941.5421;;;;
2021/08/31 07:32:49;;;;;;;0.7;0.7;;;;;;;14.52;91.62891;941.5227;;;;
2021/08/31 07:35:15;;;;;;;0.6;0.6;;;;;;;14.45;92.04199;941.4763;;;;
2021/08/31 07:37:40;;;;;;;1;0.5;;;;;;;14.43;92.33691;941.5817;;;;
2021/08/31 07:40:05;;;;;;;0.6;0.3;;;;;;;14.45;92.57129;941.6149;;;;
2021/08/31 07:42:30;;;;;;;0.4;0.4;;;;;;;14.52;91.5498;941.6766;;;;
2021/08/31 07:44:55;;;;;;;0.4;0.4;;;;;;;14.52;91.00781;941.6494;;;;
2021/08/31 07:47:20;;;;;;;0.3;0.3;;;;;;;14.59;91.20605;941.6814;;;;
2021/08/31 07:49:45;;;;;;;0.6;0.5;;;;;;;14.65;89.96289;941.7184;;;;
2021/08/31 07:52:10;;;;;;;0.4;0.3;;;;;;;14.68;90.12988;941.7553;;;;
2021/08/31 07:54:36;;;;;;;0.7;0.5;;;;;;;14.73;90.19824;941.7681;;;;
2021/08/31 07:57:01;;;;;;;0.6;0.4;;;;;;;14.8;90.07324;941.7576;;;;
2021/08/31 07:59:26;;;;;;;1;0.6;;;;;;;14.89;90.20703;941.765;;;;
2021/08/31 08:01:53;;;;;;;0.4;0.4;;;;;;;14.95;88.85938;941.813;;;;
2021/08/31 08:04:18;;;;;;;1.3;0.8;;;;;;;14.97;89.17383;941.8274;;;;
2021/08/31 08:06:43;;;;;;;1.1;1;;;;;;;15.04;90.22754;941.8075;;;;
2021/08/31 08:09:35;;;;;;;2.3;1.6;;;;;;;14.88;88.64844;941.8251;;;;
2021/08/31 08:12:00;;;;;;;0.5;0.5;;;;;;;14.6;91.81836;941.8601;;;;
2021/08/31 08:14:25;;;;;;;1.3;1.1;;;;;;;14.58;91.05371;941.8674;;;;
2021/08/31 08:16:50;;;;;;;1.1;1;;;;;;;14.43;91.86523;941.8777;;;;
2021/08/31 08:19:15;;;;;;;0.9;0.8;;;;;;;14.42;93.25488;941.8934;;;;
2021/08/31 08:21:40;;;;;;;2.5;1.1;;;;;;;14.41;92.32227;941.9228;;;;
2021/08/31 08:24:08;;;;;;;1.1;0.7;;;;;;;14.29;93.59863;941.9523;;;;
2021/08/31 08:26:31;;;;;;;0.8;0.8;;;;;;;14.3;93.93262;941.865;;;;
2021/08/31 08:28:56;;;;;;;0.8;0.7;;;;;;;14.24;93.08008;941.9146;;;;
2021/08/31 08:31:21;;;;;;;2.5;1.2;;;;;;;14.37;93.64648;941.9387;;;;
2021/08/31 08:33:46;;;;;;;1.9;1;;;;;;;14.54;94.47852;941.9442;;;;
2021/08/31 08:36:11;;;;;;;0.9;0.6;;;;;;;14.66;92.41992;941.9734;;;;
2021/08/31 08:38:36;;;;;;;0.7;0.5;;;;;;;14.83;92.87305;941.9728;;;;
2021/08/31 08:41:04;;;;;;;0.5;0.5;;;;;;;14.86;90.17871;941.988;;;;
2021/08/31 08:43:27;;;;;;;0.8;0.5;;;;;;;14.97;90.25879;942.0344;;;;
2021/08/31 08:45:52;;;;;;;0.7;0.7;;;;;;;15.03;89.25586;942.0201;;;;
2021/08/31 08:48:17;;;;;;;2.4;0.6;;;;;;;14.67;90.11816;942.0214;;;;
2021/08/31 08:50:43;;;;;;;0.5;0.5;;;;;;;15.04;90.44629;941.9736;;;;
2021/08/31 08:53:08;;;;;;;1.9;1.6;;;;;;;15.49;90.97852;942.0027;;;;
2021/08/31 08:55:33;;;;;;;0.7;0.7;;;;;;;15.95;85.52539;942.0345;;;;
2021/08/31 08:57:58;;;;;;;0.7;0.7;;;;;;;16.16;86.0166;942.0368;;;;
2021/08/31 09:00:23;;;;;;;1.8;1.6;;;;;;;16.05;86.7373;942.0591;;;;
2021/08/31 09:02:48;;;;;;;1.3;1.2;;;;;;;16.28;85.87793;942.0308;;;;
2021/08/31 09:05:14;;;;;;;1.3;1.2;;;;;;;16.4;83.94727;942.0137;;;;
2021/08/31 09:07:39;;;;;;;1.2;0.9;;;;;;;16.43;83.21289;941.9881;;;;
2021/08/31 09:10:04;;;;;;;0.8;0.8;;;;;;;16.39;81.95508;941.9745;;;;
2021/08/31 09:12:29;;;;;;;1.8;1.2;;;;;;;16.31;83.26855;941.9542;;;;
2021/08/31 09:14:54;;;;;;;0.8;0.8;;;;;;;16.47;80.91504;941.8641;;;;
2021/08/31 09:17:20;;;;;;;1;0.9;;;;;;;16.46;84.35059;941.9695;;;;
2021/08/31 09:19:44;;;;;;;0.9;0.9;;;;;;;16.56;84.625;941.9286;;;;
2021/08/31 09:22:09;;;;;;;1.2;1.1;;;;;;;16.61;82.59766;941.9644;;;;
2021/08/31 09:24:35;;;;;;;1.3;1.2;;;;;;;16.66;83.82324;941.9393;;;;
2021/08/31 09:27:00;;;;;;;2.1;1.1;;;;;;;16.88;85.29004;941.9606;;;;
2021/08/31 09:29:25;;;;;;;1.1;1;;;;;;;17.15;80.97266;941.9688;;;;
2021/08/31 09:31:50;;;;;;;1.2;0.9;;;;;;;17.33;80.13574;941.9431;;;;
2021/08/31 09:34:16;;;;;;;1.2;1;;;;;;;17.18;80.9082;941.9347;;;;
2021/08/31 09:36:41;;;;;;;1.2;1.1;;;;;;;17.01;82.89258;941.994;;;;
2021/08/31 09:39:07;;;;;;;1.3;1.1;;;;;;;17.05;81.85645;941.9972;;;;
2021/08/31 09:41:32;;;;;;;1.9;1;;;;;;;16.77;82.57031;942.0183;;;;
2021/08/31 09:43:57;;;;;;;1.4;1.1;;;;;;;17;82.75195;942.007;;;;
2021/08/31 09:46:22;;;;;;;1.5;1.1;;;;;;;17.2;81.36523;941.9256;;;;
2021/08/31 09:48:47;;;;;;;2.4;1.2;;;;;;;17.03;82.69922;942.0062;;;;
2021/08/31 09:51:12;;;;;;;2.1;1;;;;;;;17.26;80.18066;942.0244;;;;
2021/08/31 09:53:37;;;;;;;1.3;1.2;;;;;;;17.03;79.87109;942.0175;;;;
2021/08/31 09:56:02;;;;;;;1.7;1.2;;;;;;;17.46;79.30078;941.9991;;;;
2021/08/31 09:58:27;;;;;;;1.6;1;;;;;;;17.46;81.41211;942.0289;;;;
2021/08/31 10:00:53;;;;;;;2.9;1.4;;;;;;;17.76;82.18652;942.0051;;;;
2021/08/31 10:03:18;;;;;;;1.9;1.1;;;;;;;17.59;80.75098;942.0089;;;;
2021/08/31 10:05:43;;;;;;;1.3;0.9;;;;;;;17.75;78.37793;942.0721;;;;
2021/08/31 10:08:08;;;;;;;2;1;;;;;;;17.53;78.68652;942.1086;;;;
2021/08/31 10:10:34;;;;;;;0.8;0.8;;;;;;;17.83;76.56934;942.1319;;;;
2021/08/31 10:12:59;;;;;;;0.9;0.9;;;;;;;17.67;77.74805;942.1404;;;;
2021/08/31 10:15:27;;;;;;;1.1;0.9;;;;;;;17.52;77.51367;942.0669;;;;
2021/08/31 10:17:52;;;;;;;0.7;0.7;;;;;;;17.6;79.15234;942.0153;;;;
2021/08/31 10:20:17;;;;;;;1.1;0.8;;;;;;;17.64;79.53027;942.135;;;;
2021/08/31 10:22:42;;;;;;;0.7;0.7;;;;;;;17.76;77.6377;942.101;;;;
2021/08/31 10:25:08;;;;;;;0.9;0.9;;;;;;;17.89;79.08887;942.1487;;;;
2021/08/31 10:27:34;;;;;;;0.8;0.8;;;;;;;18.19;77.48047;942.1459;;;;
2021/08/31 10:29:59;;;;;;;1.6;1.1;;;;;;;18.75;74.74023;942.1284;;;;
2021/08/31 10:32:25;;;;;;;0.6;0.6;;;;;;;19.34;73.38379;942.1024;;;;
2021/08/31 10:34:50;;;;;;;0.9;0.5;;;;;;;20.11;70.36133;942.2003;;;;
2021/08/31 10:37:17;;;;;;;0.6;0.6;;;;;;;20.27;67.38574;942.1511;;;;
2021/08/31 10:39:42;;;;;;;0.7;0.7;;;;;;;20.18;65.91309;942.1487;;;;
2021/08/31 10:42:07;;;;;;;0.6;0.6;;;;;;;19.62;68.66309;942.1278;;;;
2021/08/31 10:44:32;;;;;;;1.5;0.7;;;;;;;19.3;70.00977;942.1733;;;;
2021/08/31 10:46:57;;;;;;;0.8;0.5;;;;;;;19.25;71.86621;942.1314;;;;
2021/08/31 10:49:22;;;;;;;1;0.7;;;;;;;19.15;71.88477;942.2297;;;;
2021/08/31 10:51:48;;;;;;;0.7;0.7;;;;;;;18.72;73.37305;942.2903;;;;
2021/08/31 10:54:13;;;;;;;1.4;0.8;;;;;;;17.7;76.60352;942.3256;;;;
2021/08/31 10:56:38;;;;;;;1.1;0.9;;;;;;;17.65;79.24219;942.3;;;;
2021/08/31 10:59:04;;;;;;;0.9;0.6;;;;;;;17.61;79.02441;942.3196;;;;
2021/08/31 11:01:29;;;;;;;0.9;0.9;;;;;;;17.6;80.21973;942.3164;;;;
2021/08/31 11:03:53;;;;;;;0.8;0.8;;;;;;;17.61;81.58984;942.3309;;;;
2021/08/31 11:06:18;;;;;;;1;0.9;;;;;;;17.58;79.33496;942.2917;;;;
2021/08/31 11:08:43;;;;;;;1.1;1;;;;;;;17.51;80.5166;942.377;;;;
2021/08/31 11:11:09;;;;;;;1.3;1;;;;;;;17.43;79.87598;942.3481;;;;
2021/08/31 11:13:34;;;;;;;1.5;1.4;;;;;;;17.78;79.13672;942.278;;;;
2021/08/31 11:15:59;;;;;;;1.6;1;;;;;;;18.1;79.41602;942.3212;;;;
2021/08/31 11:18:24;;;;;;;1.2;1.1;;;;;;;18.5;79.29004;942.3108;;;;
2021/08/31 11:20:49;;;;;;;1.1;0.9;;;;;;;19.24;74.13574;942.2422;;;;
2021/08/31 11:23:17;;;;;;;1.6;1.1;;;;;;;19.91;73.12793;942.2672;;;;
2021/08/31 11:25:40;;;;;;;0.9;0.6;;;;;;;20.99;67.82324;942.2772;;;;
2021/08/31 11:28:04;;;;;;;1.1;1;;;;;;;21.15;67.91797;942.1602;;;;
2021/08/31 11:30:30;;;;;;;1;1;;;;;;;21.63;67.04297;942.2349;;;;
2021/08/31 11:32:55;;;;;;;0.7;0.7;;;;;;;21.28;64.5791;942.2201;;;;
2021/08/31 11:35:20;;;;;;;0.6;0.6;;;;;;;20.58;69.20801;942.2516;;;;
2021/08/31 11:37:45;;;;;;;0.6;0.6;;;;;;;20.73;68.76465;942.2557;;;;
2021/08/31 11:40:10;;;;;;;0.7;0.6;;;;;;;20.83;67.03809;942.2813;;;;
2021/08/31 11:42:35;;;;;;;1;0.6;;;;;;;20.3;68.31348;942.3113;;;;
2021/08/31 11:45:00;;;;;;;0.7;0.7;;;;;;;19.3;72.38574;942.3268;;;;
2021/08/31 11:47:27;;;;;;;1.5;1.2;;;;;;;19.27;72.88379;942.2805;;;;
2021/08/31 11:49:51;;;;;;;1.1;1;;;;;;;19.49;69.62109;942.3042;;;;
2021/08/31 11:52:18;;;;;;;1.3;1.1;;;;;;;19.45;70.90723;942.3526;;;;
2021/08/31 11:54:42;;;;;;;1;0.9;;;;;;;20.43;67.58398;942.4055;;;;
2021/08/31 11:57:06;;;;;;;1.3;1.1;;;;;;;20.06;68.33398;942.4034;;;;
2021/08/31 11:59:31;;;;;;;0.8;0.8;;;;;;;19.25;69.09375;942.4503;;;;
2021/08/31 12:01:56;;;;;;;0.8;0.8;;;;;;;18.75;71.28418;942.4745;;;;
2021/08/31 12:04:22;;;;;;;1.5;1;;;;;;;17.79;74.31055;942.5195;;;;
2021/08/31 12:06:46;;;;;;;0.9;0.9;;;;;;;17.67;76.55273;942.6237;;;;
2021/08/31 12:09:12;;;;;;;1;0.8;;;;;;;17.67;74.95117;942.6672;;;;
2021/08/31 12:11:37;;;;;;;0.9;0.8;;;;;;;17.55;77.08887;942.6753;;;;
2021/08/31 12:14:02;;;;;;;1.8;0.9;;;;;;;17.39;77.11816;942.7403;;;;
2021/08/31 12:16:27;;;;;;;0.8;0.8;;;;;;;17.25;78.78613;942.7963;;;;
2021/08/31 12:18:52;;;;;;;0.8;0.8;;;;;;;16.86;80.58105;942.7949;;;;
2021/08/31 12:21:18;;;;;;;1.2;1.1;;;;;;;16.56;82.4043;942.8676;;;;
2021/08/31 12:23:43;;;;;;;1.2;0.9;;;;;;;16.56;82.57715;942.825;;;;
2021/08/31 12:26:08;;;;;;;2;1;;;;;;;16.39;83.94531;942.837;;;;
2021/08/31 12:28:34;;;;;;;1.3;1.2;;;;;;;16.65;84.2373;942.91;;;;
2021/08/31 12:30:59;;;;;;;1.2;1.1;;;;;;;16.55;82.43555;942.8492;;;;
2021/08/31 12:33:24;;;;;;;1.3;1;;;;;;;16.63;83.6543;942.8635;;;;
2021/08/31 12:35:50;;;;;;;1.2;1.1;;;;;;;16.65;82.44238;942.8473;;;;
2021/08/31 12:38:16;;;;;;;1.4;1.2;;;;;;;16.65;82.88184;942.8256;;;;
2021/08/31 12:40:42;;;;;;;0.9;0.9;;;;;;;16.89;83.125;942.8301;;;;
2021/08/31 12:43:04;;;;;;;1.4;1.3;;;;;;;16.92;83.62891;942.8549;;;;
2021/08/31 12:45:30;;;;;;;1.5;1.2;;;;;;;16.19;84.77344;942.7927;;;;
2021/08/31 12:47:55;;;;;;;3;1.7;;;;;;;;;;;;;
2021/08/31 12:50:20;;;;;;;1.6;1.4;;;;;;;;;;;;;
2021/08/31 12:52:45;;;;;;;2;1.8;;;;;;;;;;;;;
2021/08/31 12:55:10;;;;;;;1.8;1.7;;;;;;;;;;;;;
2021/08/31 12:57:35;;;;;;;1.5;1.4;;;;;;;;;;;;;
2021/08/31 13:00:01;;;;;;;2.1;1.7;;;;;;;;;;;;;
2021/08/31 13:02:26;;;;;;;2.2;2;;;;;;;;;;;;;
2021/08/31 13:04:51;;;;;;;2.4;2;;;;;;;;;;;;;
2021/08/31 13:07:16;;;;;;;9.6;6.6;;;;;;;;;;;;;
2021/08/31 13:09:41;;;;;;;2.8;2.2;;;;;;;;;;;;;
2021/08/31 13:12:06;;;;;;;5.7;4.1;;;;;;;;;;;;;
2021/08/31 13:14:32;;;;;;;6;3.8;;;;;;;;;;;;;
2021/08/31 13:16:57;;;;;;;2.5;2.2;;;;;;;;;;;;;
2021/08/31 13:19:22;;;;;;;3.9;3.2;;;;;;;;;;;;;
2021/08/31 13:21:47;;;;;;;2.8;2.6;;;;;;;;;;;;;
2021/08/31 13:24:12;;;;;;;2.6;1.8;;;;;;;;;;;;;
2021/08/31 13:26:37;;;;;;;2.7;2.2;;;;;;;;;;;;;
2021/08/31 13:29:02;;;;;;;2.2;2;;;;;;;;;;;;;
2021/08/31 13:31:27;;;;;;;2.4;2.1;;;;;;;;;;;;;
2021/08/31 13:33:52;;;;;;;2.9;2;;;;;;;;;;;;;
2021/08/31 13:36:17;;;;;;;4.9;4.4;;;;;;;;;;;;;
2021/08/31 13:38:42;;;;;;;5.8;4.9;;;;;;;;;;;;;
2021/08/31 13:41:08;;;;;;;2.9;2.4;;;;;;;;;;;;;
2021/08/31 13:43:33;;;;;;;3.2;2.8;;;;;;;;;;;;;
2021/08/31 13:45:58;;;;;;;2.3;2.1;;;;;;;;;;;;;
2021/08/31 13:48:23;;;;;;;2.1;1.9;;;;;;;;;;;;;
2021/08/31 13:50:48;;;;;;;3.5;2.5;;;;;;;;;;;;;
2021/08/31 13:53:13;;;;;;;2.6;1.7;;;;;;;;;;;;;
2021/08/31 13:55:38;;;;;;;2.6;2.1;;;;;;;;;;;;;
2021/08/31 13:58:03;;;;;;;1.8;1.3;;;;;;;;;;;;;
2021/08/31 14:00:28;;;;;;;1.6;1.5;;;;;;;;;;;;;
2021/08/31 14:02:53;;;;;;;1.6;1.5;;;;;;;;;;;;;
2021/08/31 14:05:19;;;;;;;1.6;1.4;;;;;;;;;;;;;
2021/08/31 14:07:44;;;;;;;1.8;1.5;;;;;;;;;;;;;
2021/08/31 14:10:09;;;;;;;2;1.8;;;;;;;;;;;;;
2021/08/31 14:12:34;;;;;;;2;1.8;;;;;;;;;;;;;
2021/08/31 14:14:59;;;;;;;2.5;2.2;;;;;;;;;;;;;
2021/08/31 14:17:26;;;;;;;1.8;1.7;;;;;;;;;;;;;
2021/08/31 14:19:50;;;;;;;3.2;2.3;;;;;;;;;;;;;
2021/08/31 14:22:15;;;;;;;1.9;1.7;;;;;;;;;;;;;
2021/08/31 14:24:40;;;;;;;1.5;1.4;;;;;;;;;;;;;
2021/08/31 14:27:06;;;;;;;1.5;1.4;;;;;;;;;;;;;
2021/08/31 14:29:31;;;;;;;1.4;1.3;;;;;;;;;;;;;
2021/08/31 14:31:56;;;;;;;1.9;1.3;;;;;;;;;;;;;
2021/08/31 14:34:21;;;;;;;1.5;1.3;;;;;;;;;;;;;
2021/08/31 14:36:47;;;;;;;1.6;1.4;;;;;;;;;;;;;
2021/08/31 14:39:11;;;;;;;1.6;1.5;;;;;;;;;;;;;
2021/08/31 14:41:36;;;;;;;1.7;1.5;;;;;;;;;;;;;
2021/08/31 14:44:05;;;;;;;2;1.8;;;;;;;;;;;;;
2021/08/31 14:46:27;;;;;;;1.6;1.4;;;;;;;;;;;;;
2021/08/31 14:48:52;;;;;;;1.9;1.7;;;;;;;;;;;;;
2021/08/31 14:51:17;;;;;;;2;1.8;;;;;;;;;;;;;
2021/08/31 14:53:42;;;;;;;2.1;1.9;;;;;;;;;;;;;
2021/08/31 14:56:07;;;;;;;1.9;1.7;;;;;;;;;;;;;
2021/08/31 14:58:33;;;;;;;2;1.8;;;;;;;;;;;;;
2021/08/31 15:00:58;;;;;;;1.6;1.5;;;;;;;;;;;;;
2021/08/31 15:03:35;;;;;;;1.6;1.5;;;;;;;;;;;;;